createdAt,value
2023-01-27T00:00:16.925Z,18.49
2023-01-27T00:02:46.505Z,18.89
2023-01-27T00:05:15.563Z,18.24
2023-01-27T00:07:42.476Z,17.66
2023-01-27T00:10:09.112Z,17.93
2023-01-27T00:12:35.901Z,17.93
2023-01-27T00:15:02.835Z,17.56
2023-01-27T00:17:37.070Z,17.76
2023-01-27T00:20:05.339Z,17.30
2023-01-27T00:22:34.597Z,17.17
2023-01-27T00:25:01.762Z,16.61
2023-01-27T00:27:28.588Z,16.70
2023-01-27T00:29:55.192Z,15.66
2023-01-27T00:32:21.976Z,15.78
2023-01-27T00:34:49.285Z,16.00
2023-01-27T00:37:16.335Z,14.97
2023-01-27T00:39:42.997Z,14.95
2023-01-27T00:42:09.492Z,15.41
2023-01-27T00:44:37.021Z,15.01
2023-01-27T00:47:04.305Z,15.53
2023-01-27T00:49:31.135Z,15.45
2023-01-27T00:51:57.648Z,15.61
2023-01-27T00:54:25.067Z,15.98
2023-01-27T00:56:52.492Z,15.52
2023-01-27T00:59:19.274Z,15.24
2023-01-27T01:01:46.228Z,16.32
2023-01-27T01:04:12.905Z,15.79
2023-01-27T01:06:39.751Z,16.39
2023-01-27T01:09:06.367Z,16.88
2023-01-27T01:11:33.178Z,17.33
2023-01-27T01:14:00.582Z,17.46
2023-01-27T01:16:27.351Z,17.37
2023-01-27T01:18:56.452Z,17.92
2023-01-27T01:21:23.413Z,17.93
2023-01-27T01:23:51.260Z,18.36
2023-01-27T01:26:18.652Z,18.03
2023-01-27T01:28:45.434Z,18.37
2023-01-27T01:31:12.335Z,18.76
2023-01-27T01:33:39.204Z,18.41
2023-01-27T01:36:06.970Z,18.63
2023-01-27T01:38:33.566Z,18.46
2023-01-27T01:41:00.359Z,18.86
2023-01-27T01:43:27.615Z,18.32
2023-01-27T01:45:54.417Z,18.55
2023-01-27T01:48:21.056Z,19.21
2023-01-27T01:50:48.626Z,19.99
2023-01-27T01:53:15.450Z,19.33
2023-01-27T01:55:42.364Z,19.99
2023-01-27T01:58:09.316Z,20.14
2023-01-27T02:00:36.194Z,19.20
2023-01-27T02:03:02.936Z,19.25
2023-01-27T02:05:29.970Z,20.17
2023-01-27T02:07:56.530Z,19.64
2023-01-27T02:10:23.374Z,19.52
2023-01-27T02:12:50.967Z,19.02
2023-01-27T02:15:18.017Z,19.68
2023-01-27T02:17:44.790Z,20.26
2023-01-27T02:20:11.456Z,19.29
2023-01-27T02:22:38.927Z,19.54
2023-01-27T02:25:06.461Z,18.80
2023-01-27T02:27:33.948Z,19.04
2023-01-27T02:30:00.451Z,18.20
2023-01-27T02:32:27.242Z,18.29
2023-01-27T02:34:54.088Z,18.98
2023-01-27T02:37:21.590Z,18.56
2023-01-27T02:39:49.303Z,19.37
2023-01-27T02:42:16.312Z,18.99
2023-01-27T02:44:43.157Z,18.99
2023-01-27T02:47:11.586Z,19.80
2023-01-27T02:49:41.295Z,20.57
2023-01-27T02:52:09.782Z,19.73
2023-01-27T02:54:38.945Z,20.22
2023-01-27T02:57:05.756Z,19.80
2023-01-27T02:59:33.181Z,19.70
2023-01-27T03:02:00.780Z,19.58
2023-01-27T03:04:27.367Z,19.53
2023-01-27T03:06:56.954Z,19.27
2023-01-27T03:09:23.776Z,20.09
2023-01-27T03:11:50.404Z,19.50
2023-01-27T03:14:17.294Z,19.39
2023-01-27T03:16:44.172Z,19.98
2023-01-27T03:19:11.021Z,19.68
2023-01-27T03:21:37.801Z,19.21
2023-01-27T03:24:05.997Z,20.79
2023-01-27T03:26:32.744Z,20.91
2023-01-27T03:29:02.298Z,20.10
2023-01-27T03:31:29.603Z,20.47
2023-01-27T03:33:56.528Z,20.43
2023-01-27T03:36:23.387Z,20.75
2023-01-27T03:38:52.456Z,21.08
2023-01-27T03:41:19.292Z,21.13
2023-01-27T03:43:46.092Z,20.08
2023-01-27T03:46:12.947Z,20.01
2023-01-27T03:48:40.396Z,21.26
2023-01-27T03:51:10.675Z,20.76
2023-01-27T03:53:37.295Z,20.52
2023-01-27T03:56:03.879Z,20.19
2023-01-27T03:58:30.753Z,20.72
2023-01-27T04:00:58.467Z,19.98
2023-01-27T04:03:25.292Z,19.50
2023-01-27T04:05:52.400Z,19.39
2023-01-27T04:08:19.181Z,19.88
2023-01-27T04:10:45.799Z,20.26
2023-01-27T04:13:13.385Z,19.71
2023-01-27T04:15:42.418Z,19.75
2023-01-27T04:18:11.024Z,20.44
2023-01-27T04:20:38.354Z,20.41
2023-01-27T04:23:05.248Z,20.39
2023-01-27T04:25:32.040Z,19.99
2023-01-27T04:28:01.518Z,20.53
2023-01-27T04:30:28.535Z,19.90
2023-01-27T04:32:57.972Z,20.07
2023-01-27T04:35:27.878Z,19.84
2023-01-27T04:38:00.685Z,20.24
2023-01-27T04:40:28.790Z,20.43
2023-01-27T04:42:56.382Z,20.57
2023-01-27T04:45:25.702Z,20.56
2023-01-27T04:47:52.997Z,20.20
2023-01-27T04:50:19.631Z,20.03
2023-01-27T04:52:48.951Z,20.51
2023-01-27T04:55:16.109Z,20.59
2023-01-27T04:57:42.756Z,20.72
2023-01-27T05:00:09.490Z,21.47
2023-01-27T05:02:36.354Z,21.42
2023-01-27T05:05:03.109Z,20.70
2023-01-27T05:07:31.981Z,21.27
2023-01-27T05:09:59.901Z,20.90
2023-01-27T05:12:31.879Z,20.54
2023-01-27T05:14:58.346Z,20.87
2023-01-27T05:17:25.067Z,21.45
2023-01-27T05:19:51.749Z,21.47
2023-01-27T05:22:18.684Z,21.21
2023-01-27T05:24:45.572Z,21.38
2023-01-27T05:27:14.774Z,21.77
2023-01-27T05:29:41.599Z,22.42
2023-01-27T05:32:08.394Z,22.46
2023-01-27T05:34:37.110Z,22.70
2023-01-27T05:37:06.327Z,23.05
2023-01-27T05:39:33.174Z,22.31
2023-01-27T05:42:00.042Z,22.18
2023-01-27T05:44:26.911Z,23.40
2023-01-27T05:46:53.402Z,23.39
2023-01-27T05:49:20.045Z,22.95
2023-01-27T05:51:46.893Z,23.57
2023-01-27T05:54:13.692Z,24.02
2023-01-27T05:56:41.371Z,24.42
2023-01-27T05:59:08.240Z,23.29
2023-01-27T06:01:36.172Z,23.56
2023-01-27T06:04:04.928Z,22.58
2023-01-27T06:06:32.289Z,23.69
2023-01-27T06:09:02.184Z,23.00
2023-01-27T06:11:29.533Z,22.59
2023-01-27T06:13:57.641Z,22.54
2023-01-27T06:16:27.008Z,22.84
2023-01-27T06:18:55.213Z,23.07
2023-01-27T06:21:22.050Z,23.07
2023-01-27T06:23:49.002Z,23.36
2023-01-27T06:26:15.946Z,23.73
2023-01-27T06:31:45.334Z,23.71
2023-01-27T06:34:13.800Z,22.77
2023-01-27T06:36:40.533Z,23.19
2023-01-27T06:39:07.171Z,23.59
2023-01-27T06:41:36.220Z,24.91
2023-01-27T06:44:05.235Z,23.75
2023-01-27T06:46:32.181Z,23.86
2023-01-27T06:48:58.815Z,24.64
2023-01-27T06:51:25.745Z,23.80
2023-01-27T06:53:53.366Z,24.06
2023-01-27T06:56:21.229Z,24.08
2023-01-27T06:58:48.285Z,24.74
2023-01-27T07:01:16.919Z,25.37
2023-01-27T07:03:45.134Z,24.72
2023-01-27T07:06:12.874Z,25.39
2023-01-27T07:08:42.234Z,24.66
2023-01-27T07:11:09.800Z,24.75
2023-01-27T07:13:38.350Z,24.53
2023-01-27T07:16:07.566Z,24.83
2023-01-27T07:18:36.502Z,24.00
2023-01-27T07:21:03.112Z,24.34
2023-01-27T07:23:31.386Z,23.90
2023-01-27T07:26:00.803Z,24.94
2023-01-27T07:28:30.800Z,23.94
2023-01-27T07:31:01.251Z,24.95
2023-01-27T07:33:29.982Z,24.97
2023-01-27T07:35:58.223Z,25.07
2023-01-27T07:38:25.196Z,25.32
2023-01-27T07:40:54.830Z,24.68
2023-01-27T07:43:21.608Z,24.83
2023-01-27T07:45:51.442Z,25.27
2023-01-27T07:48:18.562Z,25.10
2023-01-27T07:50:45.635Z,24.58
2023-01-27T07:53:12.363Z,23.93
2023-01-27T07:55:39.241Z,23.73
2023-01-27T07:58:06.483Z,23.48
2023-01-27T08:00:33.677Z,23.14
2023-01-27T08:03:00.450Z,23.30
2023-01-27T08:05:28.740Z,23.69
2023-01-27T08:07:59.119Z,23.65
2023-01-27T08:10:26.874Z,23.57
2023-01-27T08:12:53.514Z,24.40
2023-01-27T08:15:20.154Z,24.51
2023-01-27T08:17:46.887Z,23.67
2023-01-27T08:20:14.246Z,23.48
2023-01-27T08:22:41.154Z,22.54
2023-01-27T08:25:08.469Z,24.19
2023-01-27T08:27:37.718Z,23.92
2023-01-27T08:30:05.069Z,23.81
2023-01-27T08:32:32.723Z,22.76
2023-01-27T08:34:59.313Z,23.46
2023-01-27T08:37:26.105Z,23.32
2023-01-27T08:39:52.716Z,22.00
2023-01-27T08:42:20.805Z,22.62
2023-01-27T08:44:47.408Z,22.48
2023-01-27T08:47:14.529Z,22.78
2023-01-27T08:49:41.444Z,23.29
2023-01-27T08:52:08.282Z,23.60
2023-01-27T08:54:36.978Z,23.12
2023-01-27T08:57:04.380Z,22.99
2023-01-27T08:59:31.221Z,24.05
2023-01-27T09:01:58.048Z,23.52
2023-01-27T09:04:27.175Z,23.32
2023-01-27T09:06:55.959Z,23.62
2023-01-27T09:09:24.940Z,23.12
2023-01-27T09:11:51.756Z,24.22
2023-01-27T09:14:18.565Z,23.69
2023-01-27T09:16:45.135Z,23.13
2023-01-27T09:19:12.023Z,23.02
2023-01-27T09:21:38.637Z,22.77
2023-01-27T09:24:05.350Z,23.25
2023-01-27T09:26:32.235Z,22.47
2023-01-27T09:28:58.869Z,22.58
2023-01-27T09:31:26.942Z,23.08
2023-01-27T09:33:54.374Z,22.08
2023-01-27T09:36:21.086Z,22.74
2023-01-27T09:38:47.987Z,21.32
2023-01-27T09:41:14.741Z,22.11
2023-01-27T09:43:41.302Z,21.59
2023-01-27T09:46:08.240Z,21.81
2023-01-27T09:48:35.240Z,21.26
2023-01-27T09:51:03.871Z,21.72
2023-01-27T09:53:31.225Z,21.84
2023-01-27T09:55:58.231Z,21.22
2023-01-27T09:58:24.936Z,21.75
2023-01-27T10:00:51.535Z,20.76
2023-01-27T10:03:19.297Z,21.02
2023-01-27T10:05:46.312Z,21.24
2023-01-27T10:08:15.353Z,21.48
2023-01-27T10:10:41.970Z,22.23
2023-01-27T10:13:08.807Z,21.84
2023-01-27T10:15:37.935Z,21.86
2023-01-27T10:18:08.941Z,21.75
2023-01-27T10:20:36.117Z,21.06
2023-01-27T10:23:04.052Z,20.60
2023-01-27T10:25:30.935Z,21.60
2023-01-27T10:27:57.855Z,21.44
2023-01-27T10:30:25.298Z,21.35
2023-01-27T10:32:51.943Z,21.46
2023-01-27T10:35:18.802Z,20.52
2023-01-27T10:37:45.413Z,20.78
2023-01-27T10:40:12.652Z,21.39
2023-01-27T10:42:42.012Z,21.62
2023-01-27T10:45:08.522Z,21.40
2023-01-27T10:47:36.035Z,22.13
2023-01-27T10:52:33.146Z,20.62
2023-01-27T10:54:59.836Z,21.25
2023-01-27T10:57:26.962Z,22.35
2023-01-27T11:00:17.994Z,21.63
2023-01-27T11:02:42.108Z,20.63
2023-01-27T11:05:11.536Z,21.09
2023-01-27T11:07:38.098Z,20.80
2023-01-27T11:10:05.007Z,21.21
2023-01-27T11:12:31.750Z,21.02
2023-01-27T11:14:59.216Z,21.30
2023-01-27T11:17:27.990Z,21.48
2023-01-27T11:20:01.845Z,21.69
2023-01-27T11:22:28.620Z,21.83
2023-01-27T11:24:58.243Z,21.30
2023-01-27T11:27:26.548Z,21.11
2023-01-27T11:29:53.373Z,22.79
2023-01-27T11:32:20.303Z,22.50
2023-01-27T11:34:48.001Z,22.39
2023-01-27T11:37:15.057Z,21.82
2023-01-27T11:39:41.771Z,21.14
2023-01-27T11:42:08.613Z,21.16
2023-01-27T11:44:35.509Z,21.32
2023-01-27T11:47:02.243Z,21.26
2023-01-27T11:49:31.436Z,20.31
2023-01-27T11:51:58.677Z,19.54
2023-01-27T11:54:26.417Z,19.65
2023-01-27T11:56:53.274Z,19.39
2023-01-27T11:59:21.280Z,20.38
2023-01-27T12:01:47.857Z,19.42
2023-01-27T12:04:14.845Z,19.15
2023-01-27T12:06:41.393Z,19.56
2023-01-27T12:09:10.456Z,19.50
2023-01-27T12:11:38.047Z,19.23
2023-01-27T12:14:04.867Z,18.46
2023-01-27T12:16:33.693Z,18.20
2023-01-27T12:19:00.614Z,18.67
2023-01-27T12:21:27.424Z,18.07
2023-01-27T12:23:54.050Z,18.28
2023-01-27T12:26:20.994Z,18.35
2023-01-27T12:28:47.741Z,18.29
2023-01-27T12:31:15.460Z,18.08
2023-01-27T12:33:42.343Z,18.01
2023-01-27T12:36:09.133Z,17.38
2023-01-27T12:38:36.107Z,17.51
2023-01-27T12:41:09.193Z,17.99
2023-01-27T12:43:36.845Z,18.38
2023-01-27T12:46:03.676Z,17.06
2023-01-27T12:48:34.333Z,17.01
2023-01-27T12:51:02.759Z,16.93
2023-01-27T12:53:31.727Z,16.81
2023-01-27T12:55:58.564Z,17.79
2023-01-27T12:58:25.496Z,16.89
2023-01-27T13:04:08.206Z,16.44
2023-01-27T13:06:34.828Z,16.56
2023-01-27T13:09:02.344Z,16.22
2023-01-27T13:11:28.979Z,16.35
2023-01-27T13:13:55.716Z,16.39
2023-01-27T13:16:22.349Z,17.11
2023-01-27T13:18:50.042Z,17.27
2023-01-27T13:21:16.987Z,17.44
2023-01-27T13:23:43.575Z,16.52
2023-01-27T13:26:10.179Z,16.65
2023-01-27T13:28:51.216Z,17.02
2023-01-27T13:31:19.401Z,16.47
2023-01-27T13:33:46.077Z,16.55
2023-01-27T13:36:12.905Z,16.69
2023-01-27T13:38:39.692Z,16.43
2023-01-27T13:41:07.326Z,16.44
2023-01-27T13:43:36.346Z,16.71
2023-01-27T13:46:02.976Z,16.84
2023-01-27T13:48:29.847Z,16.80
2023-01-27T13:50:56.767Z,17.10
2023-01-27T13:53:24.317Z,17.20
2023-01-27T13:55:50.922Z,17.22
2023-01-27T13:58:17.778Z,17.86
2023-01-27T14:00:44.297Z,17.95
2023-01-27T14:03:11.160Z,17.08
2023-01-27T14:05:38.248Z,17.63
2023-01-27T14:08:07.178Z,17.56
2023-01-27T14:10:33.817Z,18.23
2023-01-27T14:13:00.347Z,18.20
2023-01-27T14:15:27.553Z,18.30
2023-01-27T14:17:54.988Z,18.01
2023-01-27T14:20:22.073Z,17.80
2023-01-27T14:22:51.300Z,17.86
2023-01-27T14:25:21.089Z,17.77
2023-01-27T14:27:48.427Z,18.52
2023-01-27T14:30:16.140Z,18.01
2023-01-27T14:32:42.921Z,17.33
2023-01-27T14:35:12.119Z,17.12
2023-01-27T14:37:38.693Z,17.31
2023-01-27T14:40:06.065Z,17.14
2023-01-27T14:42:32.817Z,17.10
2023-01-27T14:48:30.162Z,16.85
2023-01-27T14:51:00.771Z,16.87
2023-01-27T14:53:28.597Z,16.98
2023-01-27T14:55:55.539Z,16.97
2023-01-27T14:58:22.334Z,16.50
2023-01-27T15:00:49.077Z,16.30
2023-01-27T15:03:15.672Z,16.04
2023-01-27T15:05:42.542Z,16.67
2023-01-27T15:08:10.832Z,15.70
2023-01-27T15:10:37.607Z,15.75
2023-01-27T15:13:04.969Z,15.62
2023-01-27T15:15:32.387Z,15.33
2023-01-27T15:17:59.691Z,15.65
2023-01-27T15:20:26.585Z,15.54
2023-01-27T15:22:53.966Z,15.63
2023-01-27T15:25:20.834Z,15.43
2023-01-27T15:27:47.402Z,14.89
2023-01-27T15:30:17.266Z,14.76
2023-01-27T15:32:43.909Z,14.97
2023-01-27T15:35:10.763Z,14.63
2023-01-27T15:37:39.663Z,14.38
2023-01-27T15:40:08.651Z,14.75
2023-01-27T15:42:35.174Z,15.12
2023-01-27T15:45:02.586Z,14.66
2023-01-27T15:47:31.665Z,13.85
2023-01-27T15:49:58.350Z,13.90
2023-01-27T15:52:25.194Z,14.07
2023-01-27T15:54:51.834Z,14.05
2023-01-27T15:57:20.209Z,13.56
2023-01-27T15:59:57.245Z,13.68
2023-01-27T16:02:25.528Z,13.23
2023-01-27T16:04:52.886Z,13.36
2023-01-27T16:10:09.687Z,13.64
2023-01-27T16:12:36.513Z,13.82
2023-01-27T16:15:03.381Z,13.80
2023-01-27T16:17:36.791Z,13.54
2023-01-27T16:20:04.011Z,12.98
2023-01-27T16:22:30.647Z,13.33
2023-01-27T16:24:59.671Z,13.61
2023-01-27T16:27:26.443Z,13.24
2023-01-27T16:29:54.076Z,13.27
2023-01-27T16:32:21.642Z,13.26
2023-01-27T16:34:48.935Z,13.03
2023-01-27T16:37:16.181Z,13.53
2023-01-27T16:39:43.335Z,13.90
2023-01-27T16:42:10.075Z,14.16
2023-01-27T16:47:31.611Z,13.53
2023-01-27T16:50:06.562Z,13.58
2023-01-27T16:52:54.982Z,13.93
2023-01-27T16:55:22.215Z,14.86
2023-01-27T16:58:08.251Z,14.89
2023-01-27T17:03:47.184Z,13.41
2023-01-27T17:06:14.593Z,13.87
2023-01-27T17:08:41.797Z,14.14
2023-01-27T17:11:10.249Z,14.25
2023-01-27T17:13:44.088Z,13.50
2023-01-27T17:19:03.474Z,14.38
2023-01-27T17:21:30.559Z,14.29
2023-01-27T17:23:57.869Z,14.35
2023-01-27T17:26:28.660Z,13.47
2023-01-27T17:28:55.252Z,14.37
2023-01-27T17:31:22.744Z,14.16
2023-01-27T17:33:52.015Z,14.30
2023-01-27T17:36:18.797Z,13.65
2023-01-27T17:38:48.666Z,13.99
2023-01-27T17:41:15.683Z,14.61
2023-01-27T17:43:46.131Z,15.06
2023-01-27T17:46:12.847Z,14.17
2023-01-27T17:48:39.882Z,13.42
2023-01-27T17:51:06.821Z,14.34
2023-01-27T17:53:33.726Z,13.83
2023-01-27T17:56:01.069Z,14.29
2023-01-27T17:58:28.312Z,14.06
2023-01-27T18:00:55.119Z,14.00
2023-01-27T18:03:21.747Z,14.36
2023-01-27T18:05:49.273Z,14.83
2023-01-27T18:08:16.127Z,14.65
2023-01-27T18:10:43.434Z,14.63
2023-01-27T18:13:10.245Z,13.71
2023-01-27T18:15:38.558Z,14.30
2023-01-27T18:18:05.713Z,13.83
2023-01-27T18:20:33.337Z,13.69
2023-01-27T18:23:00.281Z,14.20
2023-01-27T18:25:26.805Z,14.30
2023-01-27T18:27:56.455Z,13.52
2023-01-27T18:30:23.316Z,13.67
2023-01-27T18:32:49.945Z,14.26
2023-01-27T18:35:17.288Z,14.55
2023-01-27T18:37:44.243Z,14.80
2023-01-27T18:40:11.777Z,14.38
2023-01-27T18:42:38.700Z,14.21
2023-01-27T18:45:05.926Z,14.78
2023-01-27T18:47:32.865Z,14.74
2023-01-27T18:50:02.354Z,14.14
2023-01-27T18:52:33.739Z,14.08
2023-01-27T18:55:00.406Z,14.45
2023-01-27T18:57:29.003Z,14.67
2023-01-27T18:59:55.613Z,15.20
2023-01-27T19:02:22.209Z,14.20
2023-01-27T19:04:51.124Z,14.61
2023-01-27T19:07:17.716Z,16.22
2023-01-27T19:09:44.456Z,15.57
2023-01-27T19:12:12.927Z,16.06
2023-01-27T19:14:39.771Z,16.29
2023-01-27T19:17:06.597Z,16.77
2023-01-27T19:19:33.179Z,15.91
2023-01-27T19:22:07.347Z,17.22
2023-01-27T19:24:34.935Z,16.17
2023-01-27T19:27:04.278Z,16.00
2023-01-27T19:29:31.724Z,16.23
2023-01-27T19:31:59.017Z,17.31
2023-01-27T19:34:28.328Z,21.08
2023-01-27T19:36:59.426Z,18.87
2023-01-27T19:39:26.119Z,16.07
2023-01-27T19:41:53.551Z,17.07
2023-01-27T19:44:20.034Z,15.79
2023-01-27T19:46:46.609Z,16.93
2023-01-27T19:49:13.540Z,16.30
2023-01-27T19:51:40.444Z,16.27
2023-01-27T19:54:07.180Z,16.77
2023-01-27T19:56:34.069Z,16.51
2023-01-27T19:59:00.649Z,17.71
2023-01-27T20:01:29.745Z,17.48
2023-01-27T20:03:56.882Z,16.53
2023-01-27T20:06:25.969Z,17.07
2023-01-27T20:08:54.542Z,17.07
2023-01-27T20:11:21.333Z,18.16
2023-01-27T20:13:50.399Z,17.54
2023-01-27T20:16:19.435Z,17.60
2023-01-27T20:18:48.527Z,16.57
2023-01-27T20:21:15.456Z,16.28
2023-01-27T20:23:43.056Z,16.29
2023-01-27T20:26:12.126Z,17.12
2023-01-27T20:28:38.927Z,17.17
2023-01-27T20:31:05.798Z,16.55
2023-01-27T20:33:33.099Z,16.72
2023-01-27T20:36:07.295Z,17.69
2023-01-27T20:38:34.128Z,17.79
2023-01-27T20:41:01.296Z,16.88
2023-01-27T20:43:35.168Z,16.86
2023-01-27T20:46:03.242Z,17.02
2023-01-27T20:48:30.009Z,17.37
2023-01-27T20:50:56.715Z,17.08
2023-01-27T20:53:23.770Z,17.04
2023-01-27T20:55:51.063Z,16.72
2023-01-27T20:58:17.803Z,17.67
2023-01-27T21:00:47.340Z,17.94
2023-01-27T21:03:16.385Z,18.18
2023-01-27T21:05:43.983Z,18.09
2023-01-27T21:08:10.667Z,18.01
2023-01-27T21:10:37.234Z,18.19
2023-01-27T21:13:06.636Z,18.13
2023-01-27T21:15:33.205Z,18.00
2023-01-27T21:18:02.050Z,17.63
2023-01-27T21:20:28.728Z,18.85
2023-01-27T21:22:55.546Z,18.66
2023-01-27T21:25:22.992Z,18.40
2023-01-27T21:27:49.787Z,19.43
2023-01-27T21:30:16.672Z,19.61
2023-01-27T21:32:44.260Z,19.48
2023-01-27T21:35:12.876Z,19.68
2023-01-27T21:37:40.294Z,19.75
2023-01-27T21:40:07.916Z,18.98
2023-01-27T21:42:35.336Z,18.20
2023-01-27T21:45:02.375Z,18.55
2023-01-27T21:47:28.975Z,18.56
2023-01-27T21:49:56.867Z,18.13
2023-01-27T21:52:24.225Z,18.18
2023-01-27T21:54:51.438Z,18.54
2023-01-27T21:57:18.228Z,18.54
2023-01-27T21:59:52.720Z,18.30
2023-01-27T22:02:19.446Z,18.23
2023-01-27T22:04:46.143Z,17.72
2023-01-27T22:07:13.147Z,17.85
2023-01-27T22:09:39.974Z,18.74
2023-01-27T22:12:08.311Z,20.37
2023-01-27T22:14:35.124Z,21.44
2023-01-27T22:17:01.671Z,18.68
2023-01-27T22:19:28.250Z,18.38
2023-01-27T22:22:02.791Z,17.97
2023-01-27T22:24:29.361Z,17.71
2023-01-27T22:26:56.261Z,17.78
2023-01-27T22:29:23.820Z,17.41
2023-01-27T22:31:51.298Z,18.25
2023-01-27T22:34:18.774Z,18.23
2023-01-27T22:36:47.871Z,17.49
2023-01-27T22:39:14.751Z,17.76
2023-01-27T22:41:41.591Z,17.46
2023-01-27T22:44:08.426Z,17.49
2023-01-27T22:46:35.140Z,17.57
2023-01-27T22:49:02.193Z,17.43
2023-01-27T22:51:29.372Z,17.85
2023-01-27T22:53:57.618Z,17.25
2023-01-27T22:56:27.580Z,17.37
